Terminal Aerodrome Forecast
Issued by NWS Sterling, VA

Current Version | Previous Version | Graphics & Text | Print | Product List | Glossary On
Versions: 1 2 3 4 5 6 7 8 9 10 11 12 13 14 15 16 17 18 19 20 21 22 23 24 25 26 27 28 29 30 31
000
FTUS41 KLWX 210839 AAA
TAFDCA
TAF AMD
KDCA 210839Z 2109/2212 19009KT P6SM SCT250
     FM211000 20007KT P6SM SCT006 BKN010
      TEMPO 2110/2114 BKN006
     FM211500 21009KT P6SM BKN050
     FM212000 21011G19KT P6SM SCT140
     FM220000 26007KT P6SM VCSH BKN040
     FM220500 36008KT P6SM VCSH BKN025=

USA.gov is the U.S. government's official web portal to all federal, state and local government web resources and services.